KJYL

Plantation Arpk Airport

Sylvania, Georgia, USA
METAR KJYL 141155Z AUTO 04003KT 10SM -RA OVC002 14/14 A3011 RMK AO2 T01370137 10137 20121
Observed Flight Rules
Dec-14 @ 11:55 UTC (24 minutes ago) Instrument Flight Rules
Wind Visibility Clouds Conditions
40° at 3 knots 10 miles
  • Overcast at 200' AGL
  • Light Rain
Temperatures Readings
Current 14°C / 57°F
Dewpoint 14°C / 57°F
Humidity 100%
Altimeter 30.11" Hg
Pressure 1020 hPa
Elevation 57
METAR KJYL 141155Z AUTO 04003KT 10SM -RA OVC002 14/14 A3011 RMK AO2 T01370137 10137 20121
Observed Flight Rules
Dec-14 @ 11:55 UTC
(24 minutes ago)
LIFR
Wind Visibility
40° at 3 knots 10 miles
Clouds
  • Overcast at 200' AGL
Conditions
  • Light Rain
Temperature Dewpoint
14°C / 57°F 14°C / 57°F
Humidity Altimeter Pressure
100% 30.11" Hg 1020 hPa